createdAt,value
2019-03-27T00:00:13.239Z,19.40
2019-03-27T00:00:49.375Z,24.20
2019-03-27T00:01:20.562Z,20.73
2019-03-27T00:01:51.720Z,19.80
2019-03-27T00:02:22.870Z,18.97
2019-03-27T00:02:54.116Z,20.47
2019-03-27T00:03:25.269Z,17.07
2019-03-27T00:03:56.434Z,17.50
2019-03-27T00:04:27.596Z,17.37
2019-03-27T00:04:58.761Z,16.47
2019-03-27T00:05:29.931Z,19.17
2019-03-27T00:06:01.134Z,15.40
2019-03-27T00:06:32.356Z,17.20
2019-03-27T00:07:03.575Z,16.57
2019-03-27T00:07:34.775Z,16.77
2019-03-27T00:08:06.945Z,17.13
2019-03-27T00:08:38.229Z,15.37
2019-03-27T00:09:09.393Z,17.17
2019-03-27T00:09:40.691Z,18.90
2019-03-27T00:10:11.854Z,17.83
2019-03-27T00:10:43.078Z,18.97
2019-03-27T00:11:16.230Z,21.17
2019-03-27T00:11:47.325Z,18.80
2019-03-27T00:12:18.478Z,19.00
2019-03-27T00:12:49.665Z,20.10
2019-03-27T00:13:20.816Z,22.30
2019-03-27T00:13:52.026Z,24.03
2019-03-27T00:14:23.682Z,27.30
2019-03-27T00:14:54.915Z,22.60
2019-03-27T00:15:26.087Z,29.23
2019-03-27T00:15:57.316Z,26.43
2019-03-27T00:16:28.479Z,26.80
2019-03-27T00:16:59.681Z,28.93
2019-03-27T00:17:30.846Z,24.30
2019-03-27T00:18:02.153Z,27.13
2019-03-27T00:18:33.396Z,35.43
2019-03-27T00:19:04.602Z,27.07
2019-03-27T00:19:35.744Z,26.73
2019-03-27T00:20:07.562Z,25.13
2019-03-27T00:20:38.697Z,22.73
2019-03-27T00:21:09.912Z,23.67
2019-03-27T00:21:41.080Z,24.20
2019-03-27T00:22:12.253Z,26.87
2019-03-27T00:22:43.481Z,26.20
2019-03-27T00:23:14.661Z,30.10
2019-03-27T00:23:45.829Z,29.30
2019-03-27T00:24:16.996Z,31.37
2019-03-27T00:24:48.291Z,37.30
2019-03-27T00:25:19.459Z,26.30
2019-03-27T00:25:50.632Z,34.20
2019-03-27T00:26:21.877Z,26.13
2019-03-27T00:26:53.343Z,25.13
2019-03-27T00:27:24.555Z,26.53
2019-03-27T00:27:55.717Z,25.53
2019-03-27T00:28:26.988Z,21.63
2019-03-27T00:28:58.131Z,17.13
2019-03-27T00:29:29.280Z,16.17
2019-03-27T00:30:00.467Z,19.97
2019-03-27T00:30:31.625Z,21.90
2019-03-27T00:31:02.782Z,16.73
2019-03-27T00:31:33.966Z,20.20
2019-03-27T00:32:05.148Z,21.83
2019-03-27T00:32:36.307Z,25.50
2019-03-27T00:33:07.504Z,27.63
2019-03-27T00:33:38.649Z,30.97
2019-03-27T00:34:09.836Z,44.20
2019-03-27T00:34:41.042Z,57.23
2019-03-27T00:35:13.656Z,87.73
2019-03-27T00:35:44.804Z,70.63
2019-03-27T00:36:16.011Z,74.27
2019-03-27T00:36:47.262Z,87.20
2019-03-27T00:37:18.455Z,88.30
2019-03-27T00:37:49.615Z,74.70
2019-03-27T00:38:20.821Z,81.17
2019-03-27T00:38:51.953Z,75.00
2019-03-27T00:39:23.504Z,68.73
2019-03-27T00:39:54.639Z,77.00
2019-03-27T00:40:25.843Z,65.33
2019-03-27T00:40:56.991Z,62.67
2019-03-27T00:41:29.187Z,61.67
2019-03-27T00:42:00.365Z,67.50
2019-03-27T00:42:31.547Z,60.17
2019-03-27T00:43:02.771Z,57.43
2019-03-27T00:43:33.950Z,58.80
2019-03-27T00:44:05.133Z,60.27
2019-03-27T00:44:36.415Z,69.53
2019-03-27T00:45:07.581Z,39.17
2019-03-27T00:45:38.761Z,81.43
2019-03-27T00:46:09.937Z,116.13
2019-03-27T00:46:41.111Z,126.47
2019-03-27T00:47:12.302Z,116.37
2019-03-27T00:47:43.480Z,133.53
2019-03-27T00:48:14.664Z,115.43
2019-03-27T00:48:45.929Z,95.93
2019-03-27T00:49:17.158Z,97.33
2019-03-27T00:49:48.383Z,89.93
2019-03-27T00:50:19.606Z,110.13
2019-03-27T00:50:50.841Z,114.20
2019-03-27T00:51:22.080Z,107.73
2019-03-27T00:51:53.481Z,100.57
2019-03-27T00:52:24.682Z,101.33
2019-03-27T00:52:55.837Z,70.40
2019-03-27T00:53:27.042Z,91.57
2019-03-27T00:53:58.200Z,81.67
2019-03-27T00:54:29.409Z,85.07
2019-03-27T00:55:00.561Z,67.77
2019-03-27T00:55:31.755Z,78.50
2019-03-27T00:56:02.916Z,65.73
2019-03-27T00:56:34.108Z,75.50
2019-03-27T00:57:05.284Z,72.67
2019-03-27T00:57:36.485Z,73.37
2019-03-27T00:58:07.653Z,69.60
2019-03-27T00:58:39.869Z,66.40
2019-03-27T00:59:11.022Z,60.73
2019-03-27T00:59:42.219Z,57.20
2019-03-27T01:00:27.651Z,47.77
2019-03-27T01:01:06.667Z,51.37
2019-03-27T01:01:37.822Z,43.03
2019-03-27T01:02:09.028Z,44.60
2019-03-27T01:02:40.198Z,39.67
2019-03-27T01:03:11.422Z,37.53
2019-03-27T01:03:42.652Z,41.77
2019-03-27T01:04:13.880Z,29.13
2019-03-27T01:04:45.099Z,38.73
2019-03-27T01:05:16.334Z,32.13
2019-03-27T01:05:47.583Z,39.97
2019-03-27T01:06:18.794Z,23.53
2019-03-27T01:06:51.144Z,28.73
2019-03-27T01:07:22.419Z,25.43
2019-03-27T01:07:53.569Z,35.47
2019-03-27T01:08:24.760Z,33.47
2019-03-27T01:08:55.923Z,38.00
2019-03-27T01:09:27.113Z,46.43
2019-03-27T01:09:58.270Z,37.17
2019-03-27T01:10:30.486Z,37.17
2019-03-27T01:11:01.635Z,37.83
2019-03-27T01:11:32.829Z,39.37
2019-03-27T01:12:03.996Z,41.17
2019-03-27T01:12:35.189Z,46.77
2019-03-27T01:13:06.342Z,43.13
2019-03-27T01:13:37.519Z,36.13
2019-03-27T01:14:08.669Z,41.53
2019-03-27T01:14:39.861Z,52.00
2019-03-27T01:15:11.014Z,53.17
2019-03-27T01:15:42.437Z,51.87
2019-03-27T01:16:13.587Z,50.00
2019-03-27T01:16:44.805Z,60.83
2019-03-27T01:17:15.960Z,59.57
2019-03-27T01:17:47.156Z,54.43
2019-03-27T01:18:18.301Z,47.60
2019-03-27T01:18:49.497Z,50.43
2019-03-27T01:19:20.657Z,52.87
2019-03-27T01:19:51.870Z,46.00
2019-03-27T01:20:23.038Z,38.37
2019-03-27T01:20:54.244Z,50.07
2019-03-27T01:21:25.375Z,47.33
2019-03-27T01:21:56.794Z,38.93
2019-03-27T01:22:27.983Z,36.73
2019-03-27T01:22:59.183Z,32.00
2019-03-27T01:23:30.318Z,34.37
2019-03-27T01:24:01.518Z,36.33
2019-03-27T01:24:32.665Z,42.33
2019-03-27T01:25:05.163Z,26.87
2019-03-27T01:25:36.325Z,35.70
2019-03-27T01:26:07.529Z,33.33
2019-03-27T01:26:38.712Z,29.23
2019-03-27T01:27:09.923Z,29.73
2019-03-27T01:27:41.091Z,27.43
2019-03-27T01:28:12.305Z,30.23
2019-03-27T01:28:43.503Z,31.90
2019-03-27T01:29:14.657Z,24.70
2019-03-27T01:29:45.836Z,26.77
2019-03-27T01:30:17.001Z,23.20
2019-03-27T01:30:48.219Z,26.50
2019-03-27T01:31:19.390Z,26.80
2019-03-27T01:31:50.629Z,30.80
2019-03-27T01:32:21.855Z,27.63
2019-03-27T01:32:53.296Z,24.17
2019-03-27T01:33:24.446Z,33.63
2019-03-27T01:33:55.646Z,26.43
2019-03-27T01:34:26.804Z,29.13
2019-03-27T01:34:58.053Z,31.03
2019-03-27T01:35:29.208Z,26.53
2019-03-27T01:36:00.472Z,22.70
2019-03-27T01:36:31.629Z,26.10
2019-03-27T01:37:02.831Z,23.33
2019-03-27T01:37:33.988Z,27.73
2019-03-27T01:38:05.198Z,21.83
2019-03-27T01:38:36.339Z,19.83
2019-03-27T01:39:07.538Z,20.73
2019-03-27T01:39:38.683Z,18.27
2019-03-27T01:40:09.988Z,17.70
2019-03-27T01:40:41.627Z,20.93
2019-03-27T01:41:12.889Z,22.23
2019-03-27T01:41:44.042Z,26.30
2019-03-27T01:42:15.235Z,26.43
2019-03-27T01:42:46.424Z,28.90
2019-03-27T01:43:17.623Z,29.10
2019-03-27T01:43:48.791Z,27.47
2019-03-27T01:44:21.906Z,28.37
2019-03-27T01:44:53.083Z,30.77
2019-03-27T01:45:24.287Z,32.43
2019-03-27T01:45:55.444Z,38.23
2019-03-27T01:46:26.632Z,40.70
2019-03-27T01:46:57.787Z,38.70
2019-03-27T01:47:29.000Z,48.37
2019-03-27T01:48:00.208Z,42.60
2019-03-27T01:48:31.431Z,49.90
2019-03-27T01:49:02.658Z,42.07
2019-03-27T01:49:33.868Z,44.10
2019-03-27T01:50:07.992Z,39.90
2019-03-27T01:50:39.220Z,45.23
2019-03-27T01:51:10.438Z,41.43
2019-03-27T01:51:41.724Z,35.87
2019-03-27T01:52:12.944Z,46.27
2019-03-27T01:52:45.070Z,40.53
2019-03-27T01:53:16.282Z,43.83
2019-03-27T01:53:47.481Z,34.57
2019-03-27T01:54:19.789Z,36.37
2019-03-27T01:54:50.948Z,41.67
2019-03-27T01:55:22.152Z,35.87
2019-03-27T01:55:53.423Z,40.07
2019-03-27T01:56:24.623Z,35.60
2019-03-27T01:56:55.797Z,33.73
2019-03-27T01:57:26.997Z,38.93
2019-03-27T01:57:58.189Z,34.17
2019-03-27T01:58:29.369Z,33.40
2019-03-27T01:59:00.533Z,36.80
2019-03-27T01:59:31.719Z,35.27
2019-03-27T02:00:06.313Z,38.77
2019-03-27T02:00:37.598Z,40.10
2019-03-27T02:01:08.763Z,35.73
2019-03-27T02:01:39.959Z,34.50
2019-03-27T02:02:11.148Z,39.37
2019-03-27T02:02:42.324Z,32.83
2019-03-27T02:03:13.535Z,35.83
2019-03-27T02:03:44.697Z,25.53
2019-03-27T02:04:15.912Z,22.93
2019-03-27T02:04:47.066Z,28.47
2019-03-27T02:05:18.268Z,27.60
2019-03-27T02:05:51.526Z,22.97
2019-03-27T02:06:24.638Z,28.77
2019-03-27T02:06:55.776Z,23.77
2019-03-27T02:07:26.977Z,25.17
2019-03-27T02:07:58.142Z,20.63
2019-03-27T02:08:29.349Z,22.47
2019-03-27T02:09:00.503Z,25.27
2019-03-27T02:09:31.699Z,21.40
2019-03-27T02:10:06.244Z,21.73
2019-03-27T02:10:37.493Z,21.37
2019-03-27T02:11:08.667Z,22.20
2019-03-27T02:11:39.870Z,28.40
2019-03-27T02:12:11.027Z,22.77
2019-03-27T02:12:42.241Z,23.30
2019-03-27T02:13:13.448Z,21.33
2019-03-27T02:13:44.735Z,28.70
2019-03-27T02:14:15.873Z,27.43
2019-03-27T02:14:47.061Z,27.83
2019-03-27T02:15:18.216Z,26.93
2019-03-27T02:15:49.431Z,16.70
2019-03-27T02:16:20.587Z,21.23
2019-03-27T02:16:51.798Z,21.90
2019-03-27T02:17:22.932Z,16.10
2019-03-27T02:17:54.146Z,23.33
2019-03-27T02:18:25.316Z,24.03
2019-03-27T02:18:56.496Z,19.73
2019-03-27T02:19:27.676Z,18.80
2019-03-27T02:19:58.856Z,19.70
2019-03-27T02:20:30.036Z,19.63
2019-03-27T02:21:01.210Z,24.57
2019-03-27T02:21:32.590Z,24.57
2019-03-27T02:22:03.788Z,21.97
2019-03-27T02:22:34.954Z,21.77
2019-03-27T02:23:06.128Z,22.77
2019-03-27T02:23:37.309Z,28.30
2019-03-27T02:24:08.493Z,27.17
2019-03-27T02:24:39.648Z,30.37
2019-03-27T02:25:10.838Z,26.27
2019-03-27T02:25:41.995Z,39.67
2019-03-27T02:26:13.172Z,35.90
2019-03-27T02:26:44.349Z,23.70
2019-03-27T02:27:15.549Z,27.83
2019-03-27T02:27:46.730Z,62.73
2019-03-27T02:28:17.911Z,74.00
2019-03-27T02:28:49.139Z,57.63
2019-03-27T02:29:20.309Z,61.57
2019-03-27T02:29:51.495Z,60.27
2019-03-27T02:30:22.671Z,64.83
2019-03-27T02:30:53.863Z,62.87
2019-03-27T02:31:25.047Z,63.90
2019-03-27T02:31:56.301Z,63.53
2019-03-27T02:32:27.482Z,60.20
2019-03-27T02:32:58.667Z,27.97
2019-03-27T02:33:29.876Z,57.33
2019-03-27T02:34:01.732Z,58.83
2019-03-27T02:34:33.079Z,37.83
2019-03-27T02:35:04.472Z,29.20
2019-03-27T02:35:35.645Z,30.60
2019-03-27T02:36:06.837Z,37.80
2019-03-27T02:36:40.857Z,51.47
2019-03-27T02:37:12.042Z,51.70
2019-03-27T02:37:43.221Z,56.53
2019-03-27T02:38:14.396Z,56.33
2019-03-27T02:38:45.598Z,57.87
2019-03-27T02:39:18.646Z,61.40
2019-03-27T02:39:49.841Z,58.53
2019-03-27T02:40:21.039Z,57.03
2019-03-27T02:40:52.249Z,61.83
2019-03-27T02:41:23.421Z,61.33
2019-03-27T02:41:54.604Z,56.37
2019-03-27T02:42:25.748Z,63.97
2019-03-27T02:42:56.944Z,60.27
2019-03-27T02:43:28.109Z,54.20
2019-03-27T02:43:59.315Z,54.80
2019-03-27T02:44:30.473Z,48.87
2019-03-27T02:45:01.670Z,51.53
2019-03-27T02:45:32.946Z,50.80
2019-03-27T02:46:04.157Z,49.07
2019-03-27T02:46:35.343Z,54.07
2019-03-27T02:47:06.562Z,52.07
2019-03-27T02:47:37.715Z,49.83
2019-03-27T02:48:09.122Z,45.90
2019-03-27T02:48:40.405Z,55.83
2019-03-27T02:49:11.665Z,46.60
2019-03-27T02:49:42.931Z,47.43
2019-03-27T02:50:14.235Z,51.63
2019-03-27T02:50:46.453Z,49.87
2019-03-27T02:51:18.689Z,51.33
2019-03-27T02:51:49.934Z,46.73
2019-03-27T02:52:21.239Z,53.13
2019-03-27T02:52:52.550Z,47.57
2019-03-27T02:53:24.159Z,53.70
2019-03-27T02:53:55.394Z,58.67
2019-03-27T02:54:26.614Z,46.80
2019-03-27T02:54:57.927Z,53.67
2019-03-27T02:55:29.181Z,48.00
2019-03-27T02:56:00.389Z,50.97
2019-03-27T02:56:31.641Z,54.57
2019-03-27T02:57:02.851Z,58.77
2019-03-27T02:57:34.543Z,56.20
2019-03-27T02:58:05.749Z,54.30
2019-03-27T02:58:37.004Z,54.87
2019-03-27T02:59:08.218Z,50.43
2019-03-27T02:59:39.370Z,46.97
2019-03-27T03:00:11.073Z,45.07
2019-03-27T03:00:42.237Z,52.87
2019-03-27T03:01:13.440Z,53.17
2019-03-27T03:01:47.798Z,46.53
2019-03-27T03:02:17.698Z,51.67
2019-03-27T03:02:48.854Z,54.63
2019-03-27T03:03:20.064Z,57.33
2019-03-27T03:03:51.219Z,45.03
2019-03-27T03:04:22.420Z,49.17
2019-03-27T03:04:53.580Z,49.33
2019-03-27T03:05:24.772Z,61.50
2019-03-27T03:05:55.948Z,52.07
2019-03-27T03:06:28.150Z,57.93
2019-03-27T03:06:59.298Z,57.83
2019-03-27T03:07:30.540Z,65.03
2019-03-27T03:08:01.776Z,69.03
2019-03-27T03:08:32.984Z,65.47
2019-03-27T03:09:05.557Z,71.33
2019-03-27T03:09:36.873Z,65.03
2019-03-27T03:10:08.323Z,69.20
2019-03-27T03:10:39.534Z,71.50
2019-03-27T03:11:10.701Z,72.17
2019-03-27T03:11:41.910Z,72.30
2019-03-27T03:12:13.058Z,67.77
2019-03-27T03:12:44.265Z,79.07
2019-03-27T03:13:15.428Z,69.17
2019-03-27T03:13:46.627Z,74.73
2019-03-27T03:14:17.811Z,66.63
2019-03-27T03:14:49.048Z,69.20
2019-03-27T03:15:21.286Z,77.07
2019-03-27T03:15:52.513Z,76.73
2019-03-27T03:16:40.923Z,74.67
2019-03-27T03:16:57.110Z,74.70
2019-03-27T03:17:28.332Z,67.40
2019-03-27T03:17:59.545Z,69.43
2019-03-27T03:18:30.793Z,70.20
2019-03-27T03:19:02.015Z,72.17
2019-03-27T03:19:33.221Z,62.93
2019-03-27T03:20:06.082Z,70.17
2019-03-27T03:20:38.289Z,57.37
2019-03-27T03:21:09.539Z,52.10
2019-03-27T03:21:40.742Z,58.67
2019-03-27T03:22:11.898Z,48.63
2019-03-27T03:22:43.118Z,51.20
2019-03-27T03:23:14.262Z,54.37
2019-03-27T03:23:45.459Z,48.10
2019-03-27T03:24:16.666Z,46.03
2019-03-27T03:24:47.877Z,41.10
2019-03-27T03:25:19.032Z,41.77
2019-03-27T03:25:50.276Z,46.53
2019-03-27T03:26:21.435Z,43.77
2019-03-27T03:26:52.634Z,34.07
2019-03-27T03:27:23.779Z,36.47
2019-03-27T03:27:54.981Z,40.90
2019-03-27T03:28:26.247Z,38.63
2019-03-27T03:28:57.439Z,35.17
2019-03-27T03:29:28.619Z,39.57
2019-03-27T03:29:59.783Z,37.53
2019-03-27T03:30:30.925Z,39.67
2019-03-27T03:31:02.133Z,42.50
2019-03-27T03:31:33.288Z,37.10
2019-03-27T03:32:04.485Z,37.23
2019-03-27T03:32:35.641Z,38.33
2019-03-27T03:33:06.942Z,33.40
2019-03-27T03:33:38.099Z,35.57
2019-03-27T03:34:09.442Z,36.33
2019-03-27T03:34:40.610Z,40.97
2019-03-27T03:35:11.811Z,33.23
2019-03-27T03:35:43.058Z,33.13
2019-03-27T03:36:14.532Z,35.57
2019-03-27T03:36:45.717Z,44.07
2019-03-27T03:37:16.921Z,38.80
2019-03-27T03:37:48.220Z,33.63
2019-03-27T03:38:19.397Z,27.40
2019-03-27T03:38:50.581Z,24.67
2019-03-27T03:39:21.764Z,24.53
2019-03-27T03:39:53.244Z,29.80
2019-03-27T03:40:25.426Z,26.33
2019-03-27T03:40:56.719Z,26.87
2019-03-27T03:41:27.905Z,33.07
2019-03-27T03:41:59.095Z,30.93
2019-03-27T03:42:30.264Z,27.20
2019-03-27T03:43:01.504Z,29.07
2019-03-27T03:43:32.670Z,21.13
2019-03-27T03:44:03.829Z,24.60
2019-03-27T03:44:35.068Z,30.50
2019-03-27T03:45:06.342Z,29.07
2019-03-27T03:45:37.525Z,24.53
2019-03-27T03:46:08.751Z,24.93
2019-03-27T03:46:39.933Z,27.97
2019-03-27T03:47:11.104Z,22.67
2019-03-27T03:47:42.283Z,22.60
2019-03-27T03:48:13.469Z,21.27
2019-03-27T03:48:44.686Z,27.80
2019-03-27T03:49:15.908Z,26.40
2019-03-27T03:49:47.112Z,28.20
2019-03-27T03:50:37.714Z,27.70
2019-03-27T03:51:08.929Z,27.03
2019-03-27T03:51:40.095Z,25.97
2019-03-27T03:52:11.282Z,26.30
2019-03-27T03:52:45.867Z,27.23
2019-03-27T03:53:15.560Z,27.90
2019-03-27T03:53:46.719Z,26.80
2019-03-27T03:54:17.935Z,26.27
2019-03-27T03:54:49.421Z,27.13
2019-03-27T03:55:20.661Z,25.80
2019-03-27T03:55:51.805Z,24.47
2019-03-27T03:56:23.228Z,20.37
2019-03-27T03:56:54.992Z,19.67
2019-03-27T03:57:26.183Z,24.20
2019-03-27T03:57:58.344Z,22.57
2019-03-27T03:58:29.520Z,21.83
2019-03-27T03:59:00.687Z,22.93
2019-03-27T03:59:31.886Z,22.33
2019-03-27T04:00:05.653Z,22.50
2019-03-27T04:00:37.025Z,27.10
2019-03-27T04:01:08.198Z,26.83
2019-03-27T04:01:39.583Z,29.40
2019-03-27T04:02:10.766Z,24.33
2019-03-27T04:02:41.960Z,26.63
2019-03-27T04:03:13.175Z,28.10
2019-03-27T04:03:44.372Z,21.17
2019-03-27T04:04:15.547Z,24.60
2019-03-27T04:04:46.817Z,27.33
2019-03-27T04:05:20.476Z,21.00
2019-03-27T04:05:51.666Z,21.03
2019-03-27T04:06:23.369Z,22.40
2019-03-27T04:06:54.546Z,24.87
2019-03-27T04:07:25.749Z,20.63
2019-03-27T04:07:56.926Z,20.93
2019-03-27T04:08:28.118Z,25.23
2019-03-27T04:08:59.285Z,21.43
2019-03-27T04:09:30.446Z,20.37
2019-03-27T04:10:01.690Z,22.70
2019-03-27T04:10:32.967Z,19.80
2019-03-27T04:11:04.194Z,23.60
2019-03-27T04:11:35.368Z,30.07
2019-03-27T04:12:06.547Z,27.93
2019-03-27T04:12:37.815Z,25.13
2019-03-27T04:13:08.989Z,23.47
2019-03-27T04:13:40.185Z,27.30
2019-03-27T04:14:11.340Z,28.03
2019-03-27T04:14:42.515Z,27.73
2019-03-27T04:15:13.706Z,31.03
2019-03-27T04:15:44.973Z,29.93
2019-03-27T04:16:16.181Z,30.17
2019-03-27T04:16:47.335Z,27.03
2019-03-27T04:17:18.632Z,27.33
2019-03-27T04:17:49.876Z,24.97
2019-03-27T04:18:21.121Z,27.13
2019-03-27T04:18:52.372Z,24.50
2019-03-27T04:19:23.965Z,24.77
2019-03-27T04:19:55.114Z,25.93
2019-03-27T04:20:26.333Z,24.70
2019-03-27T04:20:57.484Z,25.10
2019-03-27T04:21:28.683Z,26.77
2019-03-27T04:21:59.840Z,25.23
2019-03-27T04:22:31.044Z,27.27
2019-03-27T04:23:02.197Z,24.23
2019-03-27T04:23:33.484Z,25.00
2019-03-27T04:24:04.638Z,28.43
2019-03-27T04:24:35.835Z,28.23
2019-03-27T04:25:06.987Z,33.53
2019-03-27T04:26:07.269Z,37.77
2019-03-27T04:26:11.428Z,47.77
2019-03-27T04:26:42.682Z,44.10
2019-03-27T04:27:13.832Z,53.83
2019-03-27T04:27:45.015Z,51.43
2019-03-27T04:28:16.193Z,43.57
2019-03-27T04:28:47.467Z,38.90
2019-03-27T04:29:18.637Z,36.37
2019-03-27T04:29:50.019Z,40.37
2019-03-27T04:30:21.232Z,43.00
2019-03-27T04:30:52.389Z,40.20
2019-03-27T04:31:23.771Z,46.27
2019-03-27T04:31:54.989Z,44.23
2019-03-27T04:32:26.322Z,43.67
2019-03-27T04:32:57.553Z,44.93
2019-03-27T04:33:28.766Z,43.60
2019-03-27T04:33:59.996Z,42.77
2019-03-27T04:34:31.219Z,41.63
2019-03-27T04:35:04.136Z,45.70
2019-03-27T04:35:35.345Z,42.17
2019-03-27T04:36:06.474Z,42.47
2019-03-27T04:36:38.679Z,42.13
2019-03-27T04:37:09.850Z,39.63
2019-03-27T04:37:41.044Z,40.13
2019-03-27T04:38:12.198Z,43.33
2019-03-27T04:38:43.393Z,41.77
2019-03-27T04:39:15.544Z,44.67
2019-03-27T04:39:46.746Z,43.50
2019-03-27T04:40:17.897Z,41.77
2019-03-27T04:40:49.104Z,41.63
2019-03-27T04:41:20.308Z,39.17
2019-03-27T04:41:51.508Z,42.07
2019-03-27T04:42:22.672Z,37.30
2019-03-27T04:42:53.973Z,38.07
2019-03-27T04:43:25.147Z,38.00
2019-03-27T04:43:56.679Z,46.43
2019-03-27T04:44:27.832Z,44.13
2019-03-27T04:44:59.050Z,45.83
2019-03-27T04:45:30.232Z,42.87
2019-03-27T04:46:01.432Z,41.83
2019-03-27T04:46:32.582Z,40.67
2019-03-27T04:47:03.769Z,39.50
2019-03-27T04:47:34.920Z,43.93
2019-03-27T04:48:06.123Z,45.53
2019-03-27T04:48:37.278Z,41.70
2019-03-27T04:49:08.476Z,48.33
2019-03-27T04:49:39.662Z,38.60
2019-03-27T04:50:10.848Z,44.60
2019-03-27T04:50:42.020Z,43.23
2019-03-27T04:51:13.170Z,38.73
2019-03-27T04:51:44.364Z,40.97
2019-03-27T04:52:15.518Z,39.60
2019-03-27T04:52:46.717Z,37.70
2019-03-27T04:53:17.879Z,36.23
2019-03-27T04:53:50.097Z,33.37
2019-03-27T04:54:22.239Z,37.03
2019-03-27T04:54:53.697Z,35.50
2019-03-27T04:55:24.915Z,34.57
2019-03-27T04:55:56.147Z,33.63
2019-03-27T04:56:27.295Z,31.77
2019-03-27T04:56:58.509Z,31.13
2019-03-27T04:57:29.655Z,36.03
2019-03-27T04:58:00.909Z,37.77
2019-03-27T04:58:32.069Z,38.90
2019-03-27T04:59:03.238Z,41.20
2019-03-27T04:59:34.425Z,48.67
2019-03-27T05:00:06.205Z,39.13
2019-03-27T05:00:37.391Z,40.00
2019-03-27T05:01:08.677Z,39.43
2019-03-27T05:01:39.840Z,38.67
2019-03-27T05:02:11.021Z,39.03
2019-03-27T05:02:42.169Z,39.37
2019-03-27T05:03:13.425Z,35.73
2019-03-27T05:03:44.599Z,39.17
2019-03-27T05:04:15.894Z,35.97
2019-03-27T05:04:47.158Z,34.37
2019-03-27T05:05:18.367Z,33.13
2019-03-27T05:05:49.550Z,33.13
2019-03-27T05:06:20.752Z,33.93
2019-03-27T05:06:51.902Z,38.87
2019-03-27T05:07:23.581Z,37.17
2019-03-27T05:07:54.804Z,39.27
2019-03-27T05:08:26.057Z,39.27
2019-03-27T05:08:57.220Z,42.73
2019-03-27T05:09:28.419Z,39.77
2019-03-27T05:09:59.577Z,35.10
2019-03-27T05:10:30.815Z,45.40
2019-03-27T05:11:01.986Z,44.67
2019-03-27T05:11:33.163Z,44.33
2019-03-27T05:12:04.345Z,44.60
2019-03-27T05:12:38.464Z,51.90
2019-03-27T05:13:08.584Z,49.03
2019-03-27T05:13:39.754Z,44.23
2019-03-27T05:14:10.939Z,48.97
2019-03-27T05:14:42.117Z,48.20
2019-03-27T05:15:13.284Z,44.30
2019-03-27T05:15:44.480Z,49.03
2019-03-27T05:16:15.646Z,42.07
2019-03-27T05:16:46.820Z,45.83
2019-03-27T05:17:17.992Z,45.77
2019-03-27T05:17:49.176Z,40.43
2019-03-27T05:18:20.341Z,42.50
2019-03-27T05:18:51.514Z,42.00
2019-03-27T05:19:22.690Z,41.40
2019-03-27T05:19:53.960Z,34.23
2019-03-27T05:20:25.136Z,32.30
2019-03-27T05:20:56.343Z,33.00
2019-03-27T05:21:27.522Z,36.37
2019-03-27T05:21:58.696Z,32.53
2019-03-27T05:22:29.885Z,36.37
2019-03-27T05:23:01.051Z,34.37
2019-03-27T05:23:32.223Z,33.47
2019-03-27T05:24:03.435Z,33.40
2019-03-27T05:24:34.615Z,29.37
2019-03-27T05:25:06.233Z,29.87
2019-03-27T05:25:37.468Z,30.60
2019-03-27T05:26:08.675Z,31.43
2019-03-27T05:26:39.846Z,34.40
2019-03-27T05:27:11.017Z,28.63
2019-03-27T05:27:42.191Z,31.07
2019-03-27T05:28:13.381Z,29.10
2019-03-27T05:28:44.560Z,31.47
2019-03-27T05:29:15.739Z,31.07
2019-03-27T05:29:46.984Z,29.60
2019-03-27T05:30:26.520Z,32.33
2019-03-27T05:30:57.674Z,33.33
2019-03-27T05:31:28.856Z,33.33
2019-03-27T05:32:00.040Z,37.20
2019-03-27T05:32:31.220Z,37.00
2019-03-27T05:33:02.401Z,39.13
2019-03-27T05:33:33.651Z,37.70
2019-03-27T05:34:04.842Z,41.20
2019-03-27T05:34:36.014Z,38.97
2019-03-27T05:35:07.193Z,40.20
2019-03-27T05:35:38.381Z,37.33
2019-03-27T05:36:09.561Z,35.30
2019-03-27T05:36:40.737Z,34.43
2019-03-27T05:37:11.903Z,39.93
2019-03-27T05:37:43.099Z,40.87
2019-03-27T05:38:14.261Z,36.30
2019-03-27T05:38:45.433Z,37.37
2019-03-27T05:39:16.605Z,30.00
2019-03-27T05:39:47.779Z,34.83
2019-03-27T05:40:18.965Z,31.90
2019-03-27T05:40:50.131Z,29.37
2019-03-27T05:41:21.341Z,30.27
2019-03-27T05:41:52.523Z,27.00
2019-03-27T05:42:23.886Z,26.70
2019-03-27T05:43:01.031Z,21.47
2019-03-27T05:43:28.243Z,26.13
2019-03-27T05:43:59.430Z,21.83
2019-03-27T05:44:30.608Z,21.73
2019-03-27T05:45:01.877Z,23.30
2019-03-27T05:45:33.054Z,21.63
2019-03-27T05:46:04.228Z,25.67
2019-03-27T05:46:35.423Z,26.30
2019-03-27T05:47:06.587Z,20.67
2019-03-27T05:47:37.799Z,25.33
2019-03-27T05:48:08.956Z,22.53
2019-03-27T05:48:40.150Z,21.90
2019-03-27T05:49:11.311Z,22.23
2019-03-27T05:49:42.521Z,29.03
2019-03-27T05:50:13.751Z,21.07
2019-03-27T05:50:44.983Z,20.53
2019-03-27T05:51:16.210Z,20.60
2019-03-27T05:51:47.428Z,29.97
2019-03-27T05:52:18.575Z,25.87
2019-03-27T05:52:49.783Z,20.47
2019-03-27T05:53:20.950Z,23.13
2019-03-27T05:53:52.244Z,21.43
2019-03-27T05:54:23.506Z,23.20
2019-03-27T05:54:54.825Z,18.33
2019-03-27T05:55:26.715Z,20.00
2019-03-27T05:55:57.999Z,19.00
2019-03-27T05:56:29.455Z,19.13
2019-03-27T05:57:00.647Z,16.47
2019-03-27T05:57:31.823Z,18.77
2019-03-27T05:58:03.042Z,19.57
2019-03-27T05:58:34.176Z,19.30
2019-03-27T05:59:05.379Z,24.40
2019-03-27T05:59:36.529Z,26.23
2019-03-27T06:00:08.006Z,19.47
2019-03-27T06:00:39.190Z,21.33
2019-03-27T06:01:10.352Z,19.63
2019-03-27T06:01:41.548Z,22.50
2019-03-27T06:02:12.744Z,25.33
2019-03-27T06:02:43.905Z,21.70
2019-03-27T06:03:15.100Z,22.63
2019-03-27T06:03:46.263Z,21.80
2019-03-27T06:04:17.457Z,16.47
2019-03-27T06:04:48.610Z,19.57
2019-03-27T06:05:19.807Z,18.73
2019-03-27T06:05:50.952Z,20.23
2019-03-27T06:06:22.176Z,20.83
2019-03-27T06:06:53.381Z,18.07
2019-03-27T06:07:24.563Z,20.50
2019-03-27T06:07:55.755Z,17.33
2019-03-27T06:08:26.941Z,25.30
2019-03-27T06:08:58.133Z,21.80
2019-03-27T06:09:29.329Z,16.40
2019-03-27T06:10:00.529Z,20.07
2019-03-27T06:10:31.698Z,17.93
2019-03-27T06:11:02.867Z,17.90
2019-03-27T06:11:34.058Z,18.43
2019-03-27T06:12:05.247Z,19.30
2019-03-27T06:12:36.420Z,19.10
2019-03-27T06:13:07.636Z,19.27
2019-03-27T06:13:38.846Z,17.53
2019-03-27T06:14:10.036Z,19.73
2019-03-27T06:14:41.211Z,16.33
2019-03-27T06:15:12.398Z,20.13
2019-03-27T06:15:45.139Z,16.83
2019-03-27T06:16:16.580Z,21.90
2019-03-27T06:16:47.760Z,20.43
2019-03-27T06:17:18.944Z,22.07
2019-03-27T06:17:50.160Z,21.17
2019-03-27T06:18:21.330Z,17.07
2019-03-27T06:18:53.520Z,16.37
2019-03-27T06:19:24.688Z,19.43
2019-03-27T06:19:55.876Z,19.27
2019-03-27T06:20:27.058Z,20.33
2019-03-27T06:20:58.229Z,20.83
2019-03-27T06:21:29.417Z,19.63
2019-03-27T06:22:00.614Z,18.53
2019-03-27T06:22:31.782Z,20.00
2019-03-27T06:23:02.973Z,20.47
2019-03-27T06:23:34.153Z,19.47
2019-03-27T06:24:05.336Z,19.97
2019-03-27T06:24:36.501Z,17.97
2019-03-27T06:25:07.694Z,15.87
2019-03-27T06:25:38.878Z,18.10
2019-03-27T06:26:10.056Z,22.53
2019-03-27T06:26:41.235Z,21.23
2019-03-27T06:27:12.435Z,20.87
2019-03-27T06:27:43.568Z,19.77
2019-03-27T06:28:14.782Z,20.63
2019-03-27T06:28:46.949Z,15.17
2019-03-27T06:29:18.150Z,14.27
2019-03-27T06:29:49.308Z,18.13
2019-03-27T06:30:20.511Z,17.87
2019-03-27T06:30:51.672Z,16.27
2019-03-27T06:31:23.250Z,19.93
2019-03-27T06:31:54.396Z,16.03
2019-03-27T06:32:25.604Z,20.73
2019-03-27T06:32:56.750Z,20.33
2019-03-27T06:33:27.947Z,17.80
2019-03-27T06:33:59.107Z,21.10
2019-03-27T06:34:30.298Z,17.70
2019-03-27T06:35:01.560Z,17.53
2019-03-27T06:35:32.761Z,18.10
2019-03-27T06:36:03.923Z,18.83
2019-03-27T06:36:35.126Z,15.93
2019-03-27T06:37:06.305Z,19.70
2019-03-27T06:37:37.517Z,17.40
2019-03-27T06:38:08.666Z,19.03
2019-03-27T06:38:39.873Z,12.20
2019-03-27T06:39:11.015Z,17.33
2019-03-27T06:39:42.213Z,13.67
2019-03-27T06:40:13.374Z,17.43
2019-03-27T06:40:44.575Z,17.23
2019-03-27T06:41:15.735Z,14.60
2019-03-27T06:41:47.005Z,18.27
2019-03-27T06:42:18.189Z,21.00
2019-03-27T06:42:49.396Z,16.40
2019-03-27T06:43:20.566Z,15.07
2019-03-27T06:43:51.866Z,20.57